createdAt,value
2018-09-19T00:02:24.883Z,100118.00
2018-09-19T00:05:06.477Z,100127.00
2018-09-19T00:07:47.283Z,100121.00
2018-09-19T00:10:28.221Z,100121.00
2018-09-19T00:13:09.643Z,100125.00
2018-09-19T00:15:50.327Z,100123.00
2018-09-19T00:18:30.980Z,100127.00
2018-09-19T00:21:11.876Z,100132.00
2018-09-19T00:23:52.851Z,100129.00
2018-09-19T00:26:34.215Z,100127.00
2018-09-19T00:29:15.076Z,100129.00
2018-09-19T00:31:55.992Z,100129.00
2018-09-19T00:34:36.476Z,100125.00
2018-09-19T00:37:17.209Z,100133.00
2018-09-19T00:39:57.769Z,100139.00
2018-09-19T00:42:38.173Z,100133.00
2018-09-19T00:45:18.854Z,100143.00
2018-09-19T00:47:59.773Z,100145.00
2018-09-19T00:50:40.654Z,100143.00
2018-09-19T00:53:21.161Z,100147.00
2018-09-19T00:56:01.845Z,100150.00
2018-09-19T00:58:42.536Z,100149.00
2018-09-19T01:01:22.968Z,100147.00
2018-09-19T01:04:04.968Z,100153.00
2018-09-19T01:06:45.777Z,100156.00
2018-09-19T01:09:26.384Z,100156.00
2018-09-19T01:12:07.301Z,100157.00
2018-09-19T01:14:48.185Z,100168.00
2018-09-19T01:17:28.595Z,100160.00
2018-09-19T01:20:09.629Z,100167.00
2018-09-19T01:22:50.422Z,100164.00
2018-09-19T01:25:31.301Z,100165.00
2018-09-19T01:28:11.907Z,100168.00
2018-09-19T01:30:52.817Z,100173.00
2018-09-19T01:33:33.272Z,100180.00
2018-09-19T01:36:14.174Z,100173.00
2018-09-19T01:38:54.593Z,100176.00
2018-09-19T01:41:36.087Z,100177.00
2018-09-19T01:44:16.582Z,100184.00
2018-09-19T01:46:57.184Z,100191.00
2018-09-19T01:49:38.201Z,100188.00
2018-09-19T01:52:18.675Z,100193.00
2018-09-19T01:54:59.849Z,100199.00
2018-09-19T01:57:40.724Z,100197.00
2018-09-19T02:00:21.738Z,100197.00
2018-09-19T02:03:02.564Z,100202.00
2018-09-19T02:05:43.112Z,100202.00
2018-09-19T02:08:24.621Z,100203.00
2018-09-19T02:11:06.203Z,100206.00
2018-09-19T02:13:46.771Z,100206.00
2018-09-19T02:16:27.402Z,100226.00
2018-09-19T02:19:08.101Z,100221.00
2018-09-19T02:21:48.980Z,100218.00
2018-09-19T02:24:29.925Z,100217.00
2018-09-19T02:27:11.473Z,100215.00
2018-09-19T02:29:51.896Z,100217.00
2018-09-19T02:32:33.053Z,100217.00
2018-09-19T02:35:13.841Z,100213.00
2018-09-19T02:37:54.887Z,100217.00
2018-09-19T02:40:35.859Z,100220.00
2018-09-19T02:43:17.787Z,100220.00
2018-09-19T02:45:58.471Z,100227.00
2018-09-19T02:48:38.934Z,100236.00
2018-09-19T02:51:20.461Z,100235.00
2018-09-19T02:54:01.663Z,100238.00
2018-09-19T02:56:42.253Z,100239.00
2018-09-19T02:59:23.009Z,100244.00
2018-09-19T03:02:04.300Z,100235.00
2018-09-19T03:04:44.876Z,100244.00
2018-09-19T03:07:25.522Z,100245.00
2018-09-19T03:10:06.459Z,100247.00
2018-09-19T03:12:47.571Z,100247.00
2018-09-19T03:15:28.335Z,100251.00
2018-09-19T03:18:08.881Z,100245.00
2018-09-19T03:20:49.912Z,100250.00
2018-09-19T03:23:31.124Z,100254.00
2018-09-19T03:26:12.039Z,100253.00
2018-09-19T03:28:52.486Z,100249.00
2018-09-19T03:31:32.922Z,100257.00
2018-09-19T03:34:13.861Z,100254.00
2018-09-19T03:36:54.402Z,100254.00
2018-09-19T03:39:35.300Z,100253.00
2018-09-19T03:42:16.039Z,100257.00
2018-09-19T03:44:56.924Z,100264.00
2018-09-19T03:47:37.649Z,100271.00
2018-09-19T03:50:19.134Z,100276.00
2018-09-19T03:52:59.551Z,100270.00
2018-09-19T03:55:40.594Z,100277.00
2018-09-19T03:58:21.098Z,100275.00
2018-09-19T04:01:02.625Z,100282.00
2018-09-19T04:03:43.193Z,100281.00
2018-09-19T04:06:24.145Z,100279.00
2018-09-19T04:09:09.101Z,100290.00
2018-09-19T04:11:50.245Z,100284.00
2018-09-19T04:14:31.150Z,100294.00
2018-09-19T04:17:11.840Z,100285.00
2018-09-19T04:19:52.666Z,100293.00
2018-09-19T04:22:34.000Z,100295.00
2018-09-19T04:25:14.494Z,100301.00
2018-09-19T04:27:55.220Z,100301.00
2018-09-19T04:30:36.003Z,100298.00
2018-09-19T04:33:16.553Z,100300.00
2018-09-19T04:35:57.225Z,100301.00
2018-09-19T04:38:38.156Z,100306.00
2018-09-19T04:41:18.632Z,100315.00
2018-09-19T04:43:59.327Z,100321.00
2018-09-19T04:46:40.593Z,100329.00
2018-09-19T04:49:21.004Z,100328.00
2018-09-19T04:52:01.686Z,100328.00
2018-09-19T04:54:42.096Z,100319.00
2018-09-19T04:57:22.593Z,100334.00
2018-09-19T05:00:03.180Z,100328.00
2018-09-19T05:02:44.921Z,100333.00
2018-09-19T05:05:25.367Z,100337.00
2018-09-19T05:08:06.454Z,100342.00
2018-09-19T05:10:46.921Z,100346.00
2018-09-19T05:13:27.845Z,100349.00
2018-09-19T05:16:08.249Z,100353.00
2018-09-19T05:18:49.278Z,100349.00
2018-09-19T05:21:30.288Z,100354.00
2018-09-19T05:24:10.816Z,100359.00
2018-09-19T05:26:51.833Z,100361.00
2018-09-19T05:29:32.408Z,100368.00
2018-09-19T05:32:13.128Z,100374.00
2018-09-19T05:34:53.611Z,100383.00
2018-09-19T05:37:34.205Z,100383.00
2018-09-19T05:40:14.854Z,100383.00
2018-09-19T05:42:55.461Z,100385.00
2018-09-19T05:45:36.408Z,100386.00
2018-09-19T05:48:16.893Z,100396.00
2018-09-19T05:50:57.549Z,100393.00
2018-09-19T05:53:38.039Z,100396.00
2018-09-19T05:56:18.999Z,100399.00
2018-09-19T05:58:59.810Z,100397.00
2018-09-19T06:01:40.643Z,100401.00
2018-09-19T06:04:21.289Z,100397.00
2018-09-19T06:07:02.429Z,100401.00
2018-09-19T06:09:43.977Z,100403.00
2018-09-19T06:12:24.430Z,100409.00
2018-09-19T06:15:05.341Z,100417.00
2018-09-19T06:17:46.045Z,100410.00
2018-09-19T06:20:27.216Z,100412.00
2018-09-19T06:23:08.265Z,100414.00
2018-09-19T06:25:48.791Z,100416.00
2018-09-19T06:28:29.528Z,100420.00
2018-09-19T06:31:10.022Z,100425.00
2018-09-19T06:33:50.641Z,100429.00
2018-09-19T06:36:31.113Z,100430.00
2018-09-19T06:39:12.486Z,100427.00
2018-09-19T06:41:53.523Z,100424.00
2018-09-19T06:44:34.073Z,100434.00
2018-09-19T06:47:14.949Z,100438.00
2018-09-19T06:49:55.846Z,100441.00
2018-09-19T06:52:36.252Z,100447.00
2018-09-19T06:55:17.425Z,100453.00
2018-09-19T06:57:58.640Z,100455.00
2018-09-19T07:00:39.169Z,100459.00
2018-09-19T07:03:20.009Z,100459.00
2018-09-19T07:06:00.664Z,100462.00
2018-09-19T07:08:41.317Z,100465.00
2018-09-19T07:11:21.975Z,100458.00
2018-09-19T07:14:02.963Z,100461.00
2018-09-19T07:16:43.562Z,100462.00
2018-09-19T07:19:24.095Z,100455.00
2018-09-19T07:22:04.838Z,100455.00
2018-09-19T07:24:45.586Z,100452.00
2018-09-19T07:27:26.680Z,100464.00
2018-09-19T07:30:07.777Z,100464.00
2018-09-19T07:32:48.691Z,100469.00
2018-09-19T07:35:29.606Z,100470.00
2018-09-19T07:38:10.968Z,100479.00
2018-09-19T07:40:51.962Z,100479.00
2018-09-19T07:43:32.421Z,100492.00
2018-09-19T07:46:13.292Z,100492.00
2018-09-19T07:48:54.600Z,100490.00
2018-09-19T07:51:34.957Z,100494.00
2018-09-19T07:54:15.807Z,100496.00
2018-09-19T07:56:56.245Z,100505.00
2018-09-19T07:59:36.760Z,100506.00
2018-09-19T08:02:17.717Z,100505.00
2018-09-19T08:04:58.225Z,100504.00
2018-09-19T08:07:38.698Z,100508.00
2018-09-19T08:10:19.892Z,100509.00
2018-09-19T08:13:01.333Z,100514.00
2018-09-19T08:15:43.570Z,100504.00
2018-09-19T08:18:24.085Z,100510.00
2018-09-19T08:21:05.074Z,100507.00
2018-09-19T08:23:45.876Z,100517.00
2018-09-19T08:26:27.287Z,100516.00
2018-09-19T08:29:07.922Z,100518.00
2018-09-19T08:31:48.532Z,100518.00
2018-09-19T08:34:29.293Z,100519.00
2018-09-19T08:37:09.821Z,100520.00
2018-09-19T08:39:52.244Z,100529.00
2018-09-19T08:42:32.744Z,100529.00
2018-09-19T08:45:13.557Z,100525.00
2018-09-19T08:47:54.356Z,100512.00
2018-09-19T08:50:35.608Z,100509.00
2018-09-19T08:53:16.303Z,100517.00
2018-09-19T08:55:57.045Z,100518.00
2018-09-19T08:58:39.592Z,100517.00
2018-09-19T09:01:21.484Z,100516.00
2018-09-19T09:04:02.742Z,100517.00
2018-09-19T09:06:43.844Z,100518.00
2018-09-19T09:09:24.689Z,100514.00
2018-09-19T09:12:06.796Z,100520.00
2018-09-19T09:14:47.514Z,100519.00
2018-09-19T09:17:28.208Z,100519.00
2018-09-19T09:20:08.949Z,100514.00
2018-09-19T09:22:49.761Z,100511.00
2018-09-19T09:25:30.868Z,100506.00
2018-09-19T09:28:11.727Z,100509.00
2018-09-19T09:30:52.225Z,100510.00
2018-09-19T09:33:32.641Z,100512.00
2018-09-19T09:36:15.934Z,100510.00
2018-09-19T09:38:57.099Z,100506.00
2018-09-19T09:41:38.793Z,100504.00
2018-09-19T09:44:19.851Z,100497.00
2018-09-19T09:47:00.719Z,100503.00
2018-09-19T09:49:41.347Z,100500.00
2018-09-19T09:52:21.830Z,100495.00
2018-09-19T09:55:02.810Z,100495.00
2018-09-19T09:57:43.722Z,100493.00
2018-09-19T10:00:30.055Z,100492.00
2018-09-19T10:03:12.144Z,100497.00
2018-09-19T10:05:53.178Z,100498.00
2018-09-19T10:08:35.815Z,100492.00
2018-09-19T10:11:16.539Z,100486.00
2018-09-19T10:13:57.281Z,100482.00
2018-09-19T10:16:37.870Z,100476.00
2018-09-19T10:19:18.748Z,100466.00
2018-09-19T10:21:59.635Z,100477.00
2018-09-19T10:24:40.555Z,100478.00
2018-09-19T10:27:21.042Z,100468.00
2018-09-19T10:30:01.713Z,100470.00
2018-09-19T10:32:42.449Z,100470.00
2018-09-19T10:35:23.035Z,100468.00
2018-09-19T10:38:03.704Z,100458.00
2018-09-19T10:40:45.916Z,100464.00
2018-09-19T10:43:26.717Z,100460.00
2018-09-19T10:46:07.741Z,100456.00
2018-09-19T10:48:49.087Z,100456.00
2018-09-19T10:51:29.620Z,100458.00
2018-09-19T10:54:10.273Z,100452.00
2018-09-19T10:56:50.876Z,100448.00
2018-09-19T10:59:32.077Z,100450.00
2018-09-19T11:02:13.401Z,100447.00
2018-09-19T11:04:54.377Z,100446.00
2018-09-19T11:07:35.196Z,100440.00
2018-09-19T11:10:16.439Z,100441.00
2018-09-19T11:12:57.399Z,100439.00
2018-09-19T11:15:38.943Z,100434.00
2018-09-19T11:18:19.505Z,100432.00
2018-09-19T11:21:00.479Z,100429.00
2018-09-19T11:23:41.674Z,100423.00
2018-09-19T11:26:22.498Z,100431.00
2018-09-19T11:29:03.397Z,100430.00
2018-09-19T11:31:44.005Z,100425.00
2018-09-19T11:34:24.936Z,100424.00
2018-09-19T11:37:05.647Z,100419.00
2018-09-19T11:39:46.432Z,100420.00
2018-09-19T11:42:27.060Z,100422.00
2018-09-19T11:45:08.090Z,100421.00
2018-09-19T11:47:49.133Z,100418.00
2018-09-19T11:50:30.154Z,100416.00
2018-09-19T11:53:16.847Z,100422.00
2018-09-19T11:55:59.077Z,100411.00
2018-09-19T11:58:39.925Z,100417.00
2018-09-19T12:01:21.917Z,100410.00
2018-09-19T12:04:04.085Z,100410.00
2018-09-19T12:06:44.957Z,100403.00
2018-09-19T12:09:25.567Z,100405.00
2018-09-19T12:12:07.225Z,100399.00
2018-09-19T12:14:47.989Z,100399.00
2018-09-19T12:17:28.405Z,100396.00
2018-09-19T12:20:09.157Z,100399.00
2018-09-19T12:22:50.192Z,100394.00
2018-09-19T12:25:31.354Z,100395.00
2018-09-19T12:28:12.430Z,100388.00
2018-09-19T12:30:53.442Z,100380.00
2018-09-19T12:33:34.952Z,100377.00
2018-09-19T12:36:15.862Z,100380.00
2018-09-19T12:38:57.104Z,100376.00
2018-09-19T12:41:38.734Z,100378.00
2018-09-19T12:44:19.522Z,100381.00
2018-09-19T12:47:00.420Z,100382.00
2018-09-19T12:49:40.935Z,100379.00
2018-09-19T12:52:21.361Z,100384.00
2018-09-19T12:55:01.946Z,100378.00
2018-09-19T12:57:42.953Z,100373.00
2018-09-19T13:00:23.595Z,100371.00
2018-09-19T13:03:04.635Z,100369.00
2018-09-19T13:05:45.489Z,100365.00
2018-09-19T13:08:26.071Z,100360.00
2018-09-19T13:11:06.947Z,100363.00
2018-09-19T13:13:47.387Z,100361.00
2018-09-19T13:16:28.162Z,100362.00
2018-09-19T13:19:09.498Z,100365.00
2018-09-19T13:21:50.510Z,100364.00
2018-09-19T13:24:31.161Z,100365.00
2018-09-19T13:27:11.746Z,100366.00
2018-09-19T13:29:52.173Z,100360.00
2018-09-19T13:32:32.843Z,100361.00
2018-09-19T13:35:13.316Z,100359.00
2018-09-19T13:37:54.976Z,100350.00
2018-09-19T13:40:35.726Z,100351.00
2018-09-19T13:43:16.684Z,100350.00
2018-09-19T13:45:57.304Z,100349.00
2018-09-19T13:48:38.612Z,100342.00
2018-09-19T13:51:23.160Z,100337.00
2018-09-19T13:54:04.345Z,100336.00
2018-09-19T13:56:45.317Z,100337.00
2018-09-19T13:59:25.859Z,100339.00
2018-09-19T14:02:06.737Z,100340.00
2018-09-19T14:04:47.118Z,100334.00
2018-09-19T14:07:27.674Z,100334.00
2018-09-19T14:10:08.339Z,100330.00
2018-09-19T14:12:48.800Z,100329.00
2018-09-19T14:15:29.468Z,100332.00
2018-09-19T14:18:11.093Z,100330.00
2018-09-19T14:20:52.099Z,100331.00
2018-09-19T14:23:32.978Z,100324.00
2018-09-19T14:26:16.346Z,100326.00
2018-09-19T14:28:57.186Z,100331.00
2018-09-19T14:31:37.989Z,100322.00
2018-09-19T14:34:19.048Z,100322.00
2018-09-19T14:37:00.142Z,100319.00
2018-09-19T14:39:40.896Z,100318.00
2018-09-19T14:42:21.520Z,100319.00
2018-09-19T14:45:02.630Z,100328.00
2018-09-19T14:47:43.915Z,100319.00
2018-09-19T14:50:26.039Z,100322.00
2018-09-19T14:53:07.497Z,100317.00
2018-09-19T14:55:48.090Z,100314.00
2018-09-19T14:58:29.855Z,100310.00
2018-09-19T15:01:10.496Z,100302.00
2018-09-19T15:03:51.493Z,100308.00
2018-09-19T15:06:32.390Z,100304.00
2018-09-19T15:09:13.710Z,100300.00
2018-09-19T15:11:54.217Z,100299.00
2018-09-19T15:14:34.882Z,100299.00
2018-09-19T15:17:15.504Z,100291.00
2018-09-19T15:19:57.354Z,100287.00
2018-09-19T15:22:38.327Z,100289.00
2018-09-19T15:25:19.597Z,100287.00
2018-09-19T15:28:01.047Z,100286.00
2018-09-19T15:30:42.153Z,100286.00
2018-09-19T15:33:22.846Z,100287.00
2018-09-19T15:36:03.600Z,100283.00
2018-09-19T15:38:44.835Z,100275.00
2018-09-19T15:41:25.536Z,100279.00
2018-09-19T15:44:06.163Z,100278.00
2018-09-19T15:46:46.868Z,100277.00
2018-09-19T15:49:27.645Z,100282.00
2018-09-19T15:52:08.979Z,100276.00
2018-09-19T15:54:51.111Z,100280.00
2018-09-19T15:57:32.456Z,100277.00
2018-09-19T16:00:13.724Z,100275.00
2018-09-19T16:02:57.422Z,100275.00
2018-09-19T16:05:38.093Z,100272.00
2018-09-19T16:08:18.917Z,100273.00
2018-09-19T16:10:59.731Z,100279.00
2018-09-19T16:13:40.595Z,100280.00
2018-09-19T16:16:22.167Z,100286.00
2018-09-19T16:19:03.060Z,100284.00
2018-09-19T16:21:43.643Z,100285.00
2018-09-19T16:24:24.755Z,100287.00
2018-09-19T16:27:05.311Z,100298.00
2018-09-19T16:29:45.901Z,100300.00
2018-09-19T16:32:26.513Z,100297.00
2018-09-19T16:35:09.361Z,100306.00
2018-09-19T16:37:50.101Z,100306.00
2018-09-19T16:40:31.657Z,100307.00
2018-09-19T16:43:12.893Z,100310.00
2018-09-19T16:45:55.322Z,100309.00
2018-09-19T16:48:44.271Z,100308.00
2018-09-19T16:51:25.062Z,100300.00
2018-09-19T16:54:05.912Z,100303.00
2018-09-19T16:56:46.805Z,100304.00
2018-09-19T16:59:27.878Z,100306.00
2018-09-19T17:02:09.163Z,100315.00
2018-09-19T17:04:50.081Z,100317.00
2018-09-19T17:07:31.691Z,100319.00
2018-09-19T17:10:12.163Z,100318.00
2018-09-19T17:12:52.679Z,100317.00
2018-09-19T17:15:33.173Z,100317.00
2018-09-19T17:18:14.870Z,100328.00
2018-09-19T17:20:56.228Z,100320.00
2018-09-19T17:23:37.000Z,100321.00
2018-09-19T17:26:17.932Z,100323.00
2018-09-19T17:28:58.537Z,100325.00
2018-09-19T17:31:39.399Z,100327.00
2018-09-19T17:34:20.132Z,100334.00
2018-09-19T17:37:00.890Z,100326.00
2018-09-19T17:39:41.750Z,100326.00
2018-09-19T17:42:22.223Z,100334.00
2018-09-19T17:45:02.686Z,100336.00
2018-09-19T17:47:43.265Z,100339.00
2018-09-19T17:50:24.277Z,100342.00
2018-09-19T17:53:05.821Z,100345.00
2018-09-19T17:55:46.306Z,100347.00
2018-09-19T17:58:27.222Z,100349.00
2018-09-19T18:01:08.344Z,100345.00
2018-09-19T18:03:48.798Z,100345.00
2018-09-19T18:06:29.453Z,100348.00
2018-09-19T18:09:10.010Z,100350.00
2018-09-19T18:11:51.794Z,100347.00
2018-09-19T18:14:32.289Z,100354.00
2018-09-19T18:17:14.360Z,100354.00
2018-09-19T18:19:55.211Z,100358.00
2018-09-19T18:22:35.785Z,100355.00
2018-09-19T18:25:16.656Z,100359.00
2018-09-19T18:27:57.405Z,100355.00
2018-09-19T18:30:39.424Z,100358.00
2018-09-19T18:33:20.436Z,100358.00
2018-09-19T18:36:01.145Z,100357.00
2018-09-19T18:38:42.062Z,100355.00
2018-09-19T18:41:23.968Z,100354.00
2018-09-19T18:44:04.395Z,100355.00
2018-09-19T18:46:45.014Z,100356.00
2018-09-19T18:49:25.847Z,100358.00
2018-09-19T18:52:06.882Z,100357.00
2018-09-19T18:54:47.776Z,100363.00
2018-09-19T18:57:28.385Z,100362.00
2018-09-19T19:00:10.717Z,100364.00
2018-09-19T19:02:52.125Z,100365.00
2018-09-19T19:05:33.002Z,100366.00
2018-09-19T19:08:13.802Z,100363.00
2018-09-19T19:10:55.117Z,100369.00
2018-09-19T19:13:35.603Z,100365.00
2018-09-19T19:16:16.309Z,100364.00
2018-09-19T19:18:56.913Z,100365.00
2018-09-19T19:21:37.617Z,100360.00
2018-09-19T19:24:18.420Z,100367.00
2018-09-19T19:26:58.933Z,100362.00
2018-09-19T19:29:39.713Z,106156.00
2018-09-19T19:32:20.962Z,106156.00
2018-09-19T19:35:01.329Z,106156.00
2018-09-19T19:37:41.984Z,106156.00
2018-09-19T19:40:22.817Z,106156.00
2018-09-19T19:43:03.296Z,106156.00
2018-09-19T19:45:43.801Z,106156.00
2018-09-19T19:48:24.329Z,106156.00
2018-09-19T19:51:05.081Z,106156.00
2018-09-19T19:53:45.790Z,106156.00
2018-09-19T19:56:26.394Z,106156.00
2018-09-19T19:59:07.268Z,106156.00
2018-09-19T20:01:48.236Z,106156.00
2018-09-19T20:04:29.122Z,106156.00
2018-09-19T20:07:09.850Z,106156.00
2018-09-19T20:09:50.809Z,106156.00
2018-09-19T20:12:31.403Z,106156.00
2018-09-19T20:15:12.479Z,106156.00
2018-09-19T20:17:53.049Z,106156.00
2018-09-19T20:20:35.746Z,106156.00
2018-09-19T20:23:17.002Z,106156.00
2018-09-19T20:25:57.820Z,100379.00
2018-09-19T20:28:38.660Z,100383.00
2018-09-19T20:31:19.654Z,100384.00
2018-09-19T20:34:00.598Z,100381.00
2018-09-19T20:36:41.752Z,100385.00
2018-09-19T20:39:22.809Z,100383.00
2018-09-19T20:42:03.261Z,100382.00
2018-09-19T20:44:44.107Z,100391.00
2018-09-19T20:47:24.734Z,100396.00
2018-09-19T20:50:05.689Z,100394.00
2018-09-19T20:52:53.306Z,100393.00
2018-09-19T20:55:34.254Z,100395.00
2018-09-19T20:58:15.046Z,100395.00
2018-09-19T21:00:55.721Z,100395.00
2018-09-19T21:03:36.325Z,100397.00
2018-09-19T21:06:17.105Z,100398.00
2018-09-19T21:08:57.741Z,100403.00
2018-09-19T21:11:38.346Z,100407.00
2018-09-19T21:14:19.616Z,100408.00
2018-09-19T21:17:00.583Z,100408.00
2018-09-19T21:19:41.216Z,100415.00
2018-09-19T21:22:22.024Z,100415.00
2018-09-19T21:25:02.634Z,100411.00
2018-09-19T21:27:43.310Z,100412.00
2018-09-19T21:30:24.698Z,100410.00
2018-09-19T21:33:06.364Z,100409.00
2018-09-19T21:35:46.765Z,100404.00
2018-09-19T21:38:27.784Z,100412.00
2018-09-19T21:41:08.505Z,100402.00
2018-09-19T21:43:53.460Z,100399.00
2018-09-19T21:46:34.052Z,100407.00
2018-09-19T21:49:14.487Z,100402.00
2018-09-19T21:51:55.452Z,100406.00
2018-09-19T21:54:36.053Z,100409.00
2018-09-19T21:57:16.521Z,100411.00
2018-09-19T21:59:57.474Z,100407.00
2018-09-19T22:02:38.097Z,100410.00
2018-09-19T22:05:19.322Z,100404.00
2018-09-19T22:08:00.013Z,100408.00
2018-09-19T22:10:40.776Z,100406.00
2018-09-19T22:13:21.398Z,100409.00
2018-09-19T22:16:02.175Z,100408.00
2018-09-19T22:18:43.121Z,100409.00
2018-09-19T22:21:23.613Z,100408.00
2018-09-19T22:24:04.214Z,100412.00
2018-09-19T22:26:45.179Z,100413.00
2018-09-19T22:29:26.756Z,100412.00
2018-09-19T22:32:08.380Z,100415.00
2018-09-19T22:34:49.195Z,100410.00
2018-09-19T22:37:29.749Z,100411.00
2018-09-19T22:40:10.521Z,100411.00
2018-09-19T22:42:51.480Z,100418.00
2018-09-19T22:45:32.081Z,100416.00
2018-09-19T22:48:12.565Z,100412.00
2018-09-19T22:50:54.720Z,100414.00
2018-09-19T22:53:35.639Z,100415.00
2018-09-19T22:56:16.183Z,100416.00
2018-09-19T22:58:56.850Z,100414.00
2018-09-19T23:01:37.605Z,100413.00
2018-09-19T23:04:18.543Z,100406.00
2018-09-19T23:06:59.429Z,100410.00
2018-09-19T23:09:40.362Z,100415.00
2018-09-19T23:12:21.336Z,100411.00
2018-09-19T23:15:02.393Z,100409.00
2018-09-19T23:17:42.880Z,100411.00
2018-09-19T23:20:23.859Z,100411.00
2018-09-19T23:23:04.476Z,100407.00
2018-09-19T23:25:45.289Z,100406.00
2018-09-19T23:28:25.854Z,100404.00
2018-09-19T23:31:07.133Z,100407.00
2018-09-19T23:33:48.081Z,100411.00
2018-09-19T23:36:28.772Z,100413.00
2018-09-19T23:39:10.771Z,100407.00
2018-09-19T23:41:51.389Z,100408.00
2018-09-19T23:44:32.123Z,100407.00
2018-09-19T23:47:12.667Z,100412.00
2018-09-19T23:49:53.242Z,100411.00
2018-09-19T23:52:34.584Z,100411.00
2018-09-19T23:55:15.149Z,100415.00
2018-09-19T23:57:56.290Z,100412.00
